Nearby METAR Reports

Actuele Vliegveldwaarnemingen NL (METAR).Zie KNMI uitleg METAR hier

EHAM - Amsterdam/Schiph, Netherlands
Distance from station: ONO 18km
Updated: 20/10/2018 19:25
Few Clouds
Few Clouds
 Wind van W
Wind: W 9 km/h
Temperatuur: 13°C
Dauwpunt: 10°C
Vochtigheid: 82%
Barometer: 1030 hPa
Clouds: Few Clouds
Visibility: 10 km
Cloud details: Few Clouds 640 m
2018/10/20 17:25 EHAM 201725Z 26005KT 230V290 9999 FEW021 13/10 Q1030 NOSIG
EHKD - DE KOOY/DE KOOY
Updated: 20/10/2018 19:25
Meestal bewolkt
Meestal bewolkt
 Wind van WZW
Wind: WZW 11 km/h
Temperatuur: 13°C
Dauwpunt: 10°C
Vochtigheid: 82%
Barometer: 1030 hPa
Clouds: Meestal bewolkt
Visibility: 10 km
Cloud details: Gedeeltelijk bewolkt 579 m
Meestal bewolkt 701 m
2018/10/20 17:25 EHKD 201725Z AUTO 25006KT 9999 SCT019 BKN023 13/10 Q1030 WHT
 
EHLW - LEEUWARDEN/LEEUWARDEN
Updated: 20/10/2018 19:25
Zwaar bewolkt
Zwaar bewolkt
 Wind van WZW
Wind: WZW 9 km/h
Temperatuur: 14°C
Dauwpunt: 11°C
Vochtigheid: 82%
Barometer: 1029 hPa
Clouds: Zwaar bewolkt
Visibility: 10 km
Cloud details: Zwaar bewolkt 945 m
2018/10/20 17:25 EHLW 201725Z AUTO 25005KT 9999 OVC031 14/11 Q1029 BLU
EHVK - VOLKEL/VOLKEL
Updated: 20/10/2018 19:25
Helder
Helder
 Wind van WZW
Wind: WZW 4 km/h
Temperatuur: 9°C
Dauwpunt: 7°C
Vochtigheid: 87%
Barometer: 1030 hPa
Clouds: Helder
Visibility: 10 km
2018/10/20 17:25 EHVK 201725Z AUTO 24002KT 9999 NCD 09/07 Q1030 BLU
 
EHFS - VLISSINGEN
Updated: 20/10/2018 18:55
Helder
Helder
 Wind van N
Wind: N 6 km/h
Temperatuur: 14°C
Dauwpunt: 9°C
Vochtigheid: 72%
Barometer: 1030 hPa
Clouds: Helder
Visibility: 10 km
2018/10/20 16:55 EHFS 201655Z AUTO 35003KT 9999 NCD 14/09 Q1030 W///H///
EHEH - EINDHOVEN/EINDHOVEN
Updated: 20/10/2018 19:25
Helder
Helder
 Wind van calm
Wind: Kalm
Temperatuur: 9°C
Dauwpunt: 7°C
Vochtigheid: 87%
Barometer: 1031 hPa
Clouds: Helder
Visibility: 10 km
2018/10/20 17:25 EHEH 201725Z AUTO 00000KT 9999 NCD 09/07 Q1031 BLU VRB03KT CAVOK
 
EHGR - GILZE-RIJEN/GILZE-RIJEN
Updated: 20/10/2018 19:25
Helder
Helder
 Wind van ZZW
Wind: ZZW 2 km/h
Temperatuur: 9°C
Dauwpunt: 7°C
Vochtigheid: 87%
Barometer: 1031 hPa
Clouds: Helder
Visibility: 10 km
2018/10/20 17:25 EHGR 201725Z AUTO 20001KT 9999 NCD 09/07 Q1031 BLU
EHDL - ARNHEM/DEELEN
Updated: 20/10/2018 19:25
Zwaar bewolkt
Zwaar bewolkt
 Wind van varies
Wind: varies 4 km/h
Temperatuur: 12°C
Dauwpunt: 9°C
Vochtigheid: 82%
Barometer: 1030 hPa
Clouds: Zwaar bewolkt
Visibility: 10 km
Cloud details: Zwaar bewolkt 914 m
2018/10/20 17:25 EHDL 201725Z AUTO VRB02KT 9999 OVC030 12/09 Q1030 BLU
 
EHBK - MAASTRICHT/MAASTRICHT-AACHEN
Updated: 20/10/2018 19:25
Helder
Helder
 Wind van O
Wind: O 7 km/h
Temperatuur: 10°C
Wind Chill: 9°C
Dauwpunt: 6°C
Vochtigheid: 76%
Barometer: 1031 hPa
Clouds: Helder
Visibility: 10 km
2018/10/20 17:25 EHBK 201725Z AUTO 08004KT 030V190 9999 NCD 10/06 Q1031 NOSIG